sensor_id;sensor_type;location;lat;lon;timestamp;pressure;altitude;pressure_sealevel;temperature;humidity
62436;BME280;48480;50.252;18.848;2023-07-08T00:01:24;99304.25;;;16.26;64.31
62436;BME280;48480;50.252;18.848;2023-07-08T00:04:09;99301.70;;;16.24;64.38
62436;BME280;48480;50.252;18.848;2023-07-08T00:06:55;99298.92;;;16.21;64.74
62436;BME280;48480;50.252;18.848;2023-07-08T00:09:39;99295.55;;;16.17;65.12
62436;BME280;48480;50.252;18.848;2023-07-08T00:12:23;99292.58;;;16.14;65.34
62436;BME280;48480;50.252;18.848;2023-07-08T00:15:07;99295.68;;;16.12;65.55
62436;BME280;48480;50.252;18.848;2023-07-08T00:17:52;99293.89;;;16.05;65.62
62436;BME280;48480;50.252;18.848;2023-07-08T00:20:47;99293.30;;;16.00;65.73
62436;BME280;48480;50.252;18.848;2023-07-08T00:23:32;99296.71;;;15.95;65.76
62436;BME280;48480;50.252;18.848;2023-07-08T00:26:25;99295.62;;;15.93;65.80
62436;BME280;48480;50.252;18.848;2023-07-08T00:29:11;99296.11;;;15.94;65.54
62436;BME280;48480;50.252;18.848;2023-07-08T00:31:56;99298.67;;;15.99;65.55
62436;BME280;48480;50.252;18.848;2023-07-08T00:34:40;99298.19;;;16.02;65.10
62436;BME280;48480;50.252;18.848;2023-07-08T00:37:25;99299.35;;;16.03;64.61
62436;BME280;48480;50.252;18.848;2023-07-08T00:40:17;99297.61;;;15.99;64.36
62436;BME280;48480;50.252;18.848;2023-07-08T00:43:03;99298.88;;;15.95;64.65
62436;BME280;48480;50.252;18.848;2023-07-08T00:45:53;99294.41;;;15.87;64.62
62436;BME280;48480;50.252;18.848;2023-07-08T00:48:45;99293.70;;;15.83;64.59
62436;BME280;48480;50.252;18.848;2023-07-08T00:51:29;99282.85;;;15.70;64.71
62436;BME280;48480;50.252;18.848;2023-07-08T00:54:18;99287.57;;;15.62;64.84
62436;BME280;48480;50.252;18.848;2023-07-08T00:57:03;99286.58;;;15.48;65.33
62436;BME280;48480;50.252;18.848;2023-07-08T00:59:53;99287.25;;;15.36;65.81
62436;BME280;48480;50.252;18.848;2023-07-08T01:02:52;99280.85;;;15.26;66.38
62436;BME280;48480;50.252;18.848;2023-07-08T01:05:39;99277.20;;;15.19;66.75
62436;BME280;48480;50.252;18.848;2023-07-08T01:08:27;99270.30;;;15.23;66.59
62436;BME280;48480;50.252;18.848;2023-07-08T01:11:16;99273.84;;;15.29;66.74
62436;BME280;48480;50.252;18.848;2023-07-08T01:14:01;99269.58;;;15.28;66.75
62436;BME280;48480;50.252;18.848;2023-07-08T01:16:47;99273.26;;;15.24;66.89
62436;BME280;48480;50.252;18.848;2023-07-08T01:19:35;99272.86;;;15.21;66.94
62436;BME280;48480;50.252;18.848;2023-07-08T01:22:19;99272.73;;;15.22;66.93
62436;BME280;48480;50.252;18.848;2023-07-08T01:25:04;99273.55;;;15.23;66.68
62436;BME280;48480;50.252;18.848;2023-07-08T01:27:54;99272.33;;;15.19;66.61
62436;BME280;48480;50.252;18.848;2023-07-08T01:30:41;99273.02;;;15.15;66.73
62436;BME280;48480;50.252;18.848;2023-07-08T01:33:27;99275.86;;;15.04;67.02
62436;BME280;48480;50.252;18.848;2023-07-08T01:36:12;99277.81;;;14.94;67.11
62436;BME280;48480;50.252;18.848;2023-07-08T01:38:57;99274.60;;;14.93;67.18
62436;BME280;48480;50.252;18.848;2023-07-08T01:41:42;99281.36;;;14.94;67.06
62436;BME280;48480;50.252;18.848;2023-07-08T01:44:34;99277.96;;;14.96;66.90
62436;BME280;48480;50.252;18.848;2023-07-08T01:47:23;99273.45;;;14.97;66.81
62436;BME280;48480;50.252;18.848;2023-07-08T01:50:09;99272.91;;;14.93;66.89
62436;BME280;48480;50.252;18.848;2023-07-08T01:52:57;99275.71;;;14.85;67.03
62436;BME280;48480;50.252;18.848;2023-07-08T01:55:42;99277.28;;;14.73;67.36
62436;BME280;48480;50.252;18.848;2023-07-08T01:58:27;99278.82;;;14.70;67.44
62436;BME280;48480;50.252;18.848;2023-07-08T02:01:12;99282.39;;;14.66;67.50
62436;BME280;48480;50.252;18.848;2023-07-08T02:03:58;99287.80;;;14.65;67.51
62436;BME280;48480;50.252;18.848;2023-07-08T02:06:42;99292.52;;;14.63;67.64
62436;BME280;48480;50.252;18.848;2023-07-08T02:09:26;99289.48;;;14.61;67.74
62436;BME280;48480;50.252;18.848;2023-07-08T02:12:11;99290.46;;;14.62;67.68
62436;BME280;48480;50.252;18.848;2023-07-08T02:14:57;99294.81;;;14.65;67.81
62436;BME280;48480;50.252;18.848;2023-07-08T02:17:41;99291.89;;;14.67;67.81
62436;BME280;48480;50.252;18.848;2023-07-08T02:20:25;99293.25;;;14.65;67.81
62436;BME280;48480;50.252;18.848;2023-07-08T02:23:10;99294.81;;;14.65;67.67
62436;BME280;48480;50.252;18.848;2023-07-08T02:25:56;99295.54;;;14.64;67.84
62436;BME280;48480;50.252;18.848;2023-07-08T02:28:40;99297.99;;;14.60;67.85
62436;BME280;48480;50.252;18.848;2023-07-08T02:31:25;99294.73;;;14.56;67.88
62436;BME280;48480;50.252;18.848;2023-07-08T02:34:09;99299.16;;;14.53;68.03
62436;BME280;48480;50.252;18.848;2023-07-08T02:36:53;99297.80;;;14.47;68.18
62436;BME280;48480;50.252;18.848;2023-07-08T02:39:38;99298.15;;;14.42;68.28
62436;BME280;48480;50.252;18.848;2023-07-08T02:42:22;99302.89;;;14.41;68.43
62436;BME280;48480;50.252;18.848;2023-07-08T02:45:07;99305.04;;;14.45;68.24
62436;BME280;48480;50.252;18.848;2023-07-08T02:47:51;99304.59;;;14.49;68.03
62436;BME280;48480;50.252;18.848;2023-07-08T02:50:36;99302.90;;;14.53;68.15
62436;BME280;48480;50.252;18.848;2023-07-08T02:53:20;99304.13;;;14.54;68.17
62436;BME280;48480;50.252;18.848;2023-07-08T02:56:04;99308.02;;;14.53;68.34
62436;BME280;48480;50.252;18.848;2023-07-08T02:58:49;99307.45;;;14.49;68.54
62436;BME280;48480;50.252;18.848;2023-07-08T03:01:33;99309.08;;;14.44;68.77
62436;BME280;48480;50.252;18.848;2023-07-08T03:04:25;99306.85;;;14.42;68.72
62436;BME280;48480;50.252;18.848;2023-07-08T03:07:10;99295.15;;;14.33;68.83
62436;BME280;48480;50.252;18.848;2023-07-08T03:09:55;99300.73;;;14.38;68.91
62436;BME280;48480;50.252;18.848;2023-07-08T03:12:40;99302.39;;;14.38;68.88
62436;BME280;48480;50.252;18.848;2023-07-08T03:15:24;99306.23;;;14.42;68.88
62436;BME280;48480;50.252;18.848;2023-07-08T03:18:08;99308.94;;;14.48;68.69
62436;BME280;48480;50.252;18.848;2023-07-08T03:20:54;99311.48;;;14.55;68.60
62436;BME280;48480;50.252;18.848;2023-07-08T03:23:40;99315.81;;;14.58;68.64
62436;BME280;48480;50.252;18.848;2023-07-08T03:26:25;99313.08;;;14.55;68.90
62436;BME280;48480;50.252;18.848;2023-07-08T03:29:17;99313.34;;;14.51;69.27
62436;BME280;48480;50.252;18.848;2023-07-08T03:32:01;99309.90;;;14.49;69.46
62436;BME280;48480;50.252;18.848;2023-07-08T03:34:45;99310.41;;;14.44;69.67
62436;BME280;48480;50.252;18.848;2023-07-08T03:37:29;99309.59;;;14.47;69.72
62436;BME280;48480;50.252;18.848;2023-07-08T03:40:13;99307.35;;;14.52;69.60
62436;BME280;48480;50.252;18.848;2023-07-08T03:42:58;99304.91;;;14.57;69.54
62436;BME280;48480;50.252;18.848;2023-07-08T03:45:43;99296.77;;;14.66;69.42
62436;BME280;48480;50.252;18.848;2023-07-08T03:48:27;99300.59;;;14.74;69.40
62436;BME280;48480;50.252;18.848;2023-07-08T03:51:21;99302.34;;;14.83;69.47
62436;BME280;48480;50.252;18.848;2023-07-08T03:54:10;99303.07;;;14.87;69.69
62436;BME280;48480;50.252;18.848;2023-07-08T03:56:55;99304.56;;;14.89;69.92
62436;BME280;48480;50.252;18.848;2023-07-08T03:59:39;99302.75;;;14.95;70.00
62436;BME280;48480;50.252;18.848;2023-07-08T04:02:23;99299.61;;;15.03;69.99
62436;BME280;48480;50.252;18.848;2023-07-08T04:05:21;99304.67;;;15.10;70.19
62436;BME280;48480;50.252;18.848;2023-07-08T04:08:06;99305.24;;;15.16;70.12
62436;BME280;48480;50.252;18.848;2023-07-08T04:10:51;99304.31;;;15.23;70.22
62436;BME280;48480;50.252;18.848;2023-07-08T04:13:35;99303.77;;;15.33;70.02
62436;BME280;48480;50.252;18.848;2023-07-08T04:16:28;99296.34;;;15.45;69.96
62436;BME280;48480;50.252;18.848;2023-07-08T04:19:14;99301.48;;;15.60;69.84
62436;BME280;48480;50.252;18.848;2023-07-08T04:22:01;99303.41;;;15.71;69.63
62436;BME280;48480;50.252;18.848;2023-07-08T04:24:45;99306.42;;;15.78;69.65
62436;BME280;48480;50.252;18.848;2023-07-08T04:27:29;99307.21;;;15.81;69.64
62436;BME280;48480;50.252;18.848;2023-07-08T04:30:23;99304.23;;;15.86;69.52
62436;BME280;48480;50.252;18.848;2023-07-08T04:33:09;99298.14;;;15.94;69.31
62436;BME280;48480;50.252;18.848;2023-07-08T04:35:54;99295.16;;;16.06;69.22
62436;BME280;48480;50.252;18.848;2023-07-08T04:38:39;99295.21;;;16.14;69.11
62436;BME280;48480;50.252;18.848;2023-07-08T04:41:25;99298.30;;;16.67;68.17
62436;BME280;48480;50.252;18.848;2023-07-08T04:44:10;99296.38;;;18.51;64.98
62436;BME280;48480;50.252;18.848;2023-07-08T04:46:56;99287.08;;;20.47;61.25
62436;BME280;48480;50.252;18.848;2023-07-08T04:49:40;99287.27;;;22.25;57.65
62436;BME280;48480;50.252;18.848;2023-07-08T04:52:27;99286.14;;;23.86;53.76
62436;BME280;48480;50.252;18.848;2023-07-08T04:55:13;99288.16;;;25.25;50.52
62436;BME280;48480;50.252;18.848;2023-07-08T04:57:57;99287.18;;;26.51;47.25
62436;BME280;48480;50.252;18.848;2023-07-08T05:00:41;99280.37;;;27.62;44.34
62436;BME280;48480;50.252;18.848;2023-07-08T05:03:26;99277.05;;;28.61;41.65
62436;BME280;48480;50.252;18.848;2023-07-08T05:06:10;99280.04;;;29.48;39.55
62436;BME280;48480;50.252;18.848;2023-07-08T05:08:54;99282.63;;;30.17;37.92
62436;BME280;48480;50.252;18.848;2023-07-08T05:11:39;99272.52;;;30.66;36.24
62436;BME280;48480;50.252;18.848;2023-07-08T05:14:23;99279.77;;;31.04;35.23
62436;BME280;48480;50.252;18.848;2023-07-08T05:17:07;99276.38;;;31.25;34.37
62436;BME280;48480;50.252;18.848;2023-07-08T05:19:51;99278.06;;;31.36;33.69
62436;BME280;48480;50.252;18.848;2023-07-08T05:22:35;99278.23;;;31.48;33.21
62436;BME280;48480;50.252;18.848;2023-07-08T05:25:20;99279.49;;;31.63;32.63
62436;BME280;48480;50.252;18.848;2023-07-08T05:28:04;99280.02;;;31.75;32.28
62436;BME280;48480;50.252;18.848;2023-07-08T05:30:53;99278.98;;;31.83;31.90
62436;BME280;48480;50.252;18.848;2023-07-08T05:33:39;99278.77;;;31.91;31.55
62436;BME280;48480;50.252;18.848;2023-07-08T05:36:24;99276.63;;;31.99;31.60
62436;BME280;48480;50.252;18.848;2023-07-08T05:39:08;99277.74;;;32.03;31.77
62436;BME280;48480;50.252;18.848;2023-07-08T05:41:52;99278.88;;;32.02;31.69
62436;BME280;48480;50.252;18.848;2023-07-08T05:44:36;99282.97;;;31.97;31.16
62436;BME280;48480;50.252;18.848;2023-07-08T05:47:20;99284.04;;;31.87;31.06
62436;BME280;48480;50.252;18.848;2023-07-08T05:50:06;99282.75;;;31.86;30.98
62436;BME280;48480;50.252;18.848;2023-07-08T05:52:50;99281.30;;;31.81;30.80
62436;BME280;48480;50.252;18.848;2023-07-08T05:55:34;99279.75;;;31.76;31.02
62436;BME280;48480;50.252;18.848;2023-07-08T05:58:19;99283.48;;;31.73;30.64
62436;BME280;48480;50.252;18.848;2023-07-08T06:01:03;99279.91;;;31.79;30.34
62436;BME280;48480;50.252;18.848;2023-07-08T06:03:48;99280.58;;;31.84;30.27
62436;BME280;48480;50.252;18.848;2023-07-08T06:06:32;99256.38;;;31.82;30.02
62436;BME280;48480;50.252;18.848;2023-07-08T06:09:16;99280.63;;;32.07;29.81
62436;BME280;48480;50.252;18.848;2023-07-08T06:12:00;99282.64;;;32.09;29.54
62436;BME280;48480;50.252;18.848;2023-07-08T06:14:45;99282.67;;;32.18;29.75
62436;BME280;48480;50.252;18.848;2023-07-08T06:17:29;99286.72;;;32.29;29.35
62436;BME280;48480;50.252;18.848;2023-07-08T06:20:14;99291.98;;;32.36;29.33
62436;BME280;48480;50.252;18.848;2023-07-08T06:22:59;99295.67;;;32.50;29.05
62436;BME280;48480;50.252;18.848;2023-07-08T06:25:44;99286.20;;;32.45;28.72
62436;BME280;48480;50.252;18.848;2023-07-08T06:28:29;99295.73;;;32.50;29.34
62436;BME280;48480;50.252;18.848;2023-07-08T06:31:13;99283.13;;;32.56;29.27
62436;BME280;48480;50.252;18.848;2023-07-08T06:33:58;99286.46;;;32.66;28.63
62436;BME280;48480;50.252;18.848;2023-07-08T06:36:45;99283.30;;;32.74;28.67
62436;BME280;48480;50.252;18.848;2023-07-08T06:39:30;99284.45;;;32.77;28.91
62436;BME280;48480;50.252;18.848;2023-07-08T06:42:14;99283.48;;;32.82;29.20
62436;BME280;48480;50.252;18.848;2023-07-08T06:44:58;99290.95;;;32.87;28.27
62436;BME280;48480;50.252;18.848;2023-07-08T06:47:42;99295.85;;;32.71;28.25
62436;BME280;48480;50.252;18.848;2023-07-08T06:50:27;99298.55;;;32.65;28.19
62436;BME280;48480;50.252;18.848;2023-07-08T06:53:11;99300.34;;;32.74;28.05
62436;BME280;48480;50.252;18.848;2023-07-08T06:55:55;99298.13;;;32.86;28.28
62436;BME280;48480;50.252;18.848;2023-07-08T06:58:39;99295.83;;;32.95;28.05
62436;BME280;48480;50.252;18.848;2023-07-08T07:01:23;99286.34;;;32.94;28.06
62436;BME280;48480;50.252;18.848;2023-07-08T07:04:07;99285.66;;;32.98;28.01
62436;BME280;48480;50.252;18.848;2023-07-08T07:06:51;99283.13;;;33.05;28.14
62436;BME280;48480;50.252;18.848;2023-07-08T07:09:36;99286.57;;;33.14;27.95
62436;BME280;48480;50.252;18.848;2023-07-08T07:12:21;99287.36;;;33.26;28.20
62436;BME280;48480;50.252;18.848;2023-07-08T07:15:06;99293.05;;;33.27;27.37
62436;BME280;48480;50.252;18.848;2023-07-08T07:17:50;99297.97;;;33.27;27.27
62436;BME280;48480;50.252;18.848;2023-07-08T07:20:36;99293.96;;;33.30;27.05
62436;BME280;48480;50.252;18.848;2023-07-08T07:23:21;99289.79;;;33.31;27.24
62436;BME280;48480;50.252;18.848;2023-07-08T07:26:05;99288.77;;;33.43;27.02
62436;BME280;48480;50.252;18.848;2023-07-08T07:28:51;99285.17;;;33.54;26.46
62436;BME280;48480;50.252;18.848;2023-07-08T07:31:36;99288.82;;;33.50;26.54
62436;BME280;48480;50.252;18.848;2023-07-08T07:34:20;99282.31;;;33.56;26.13
62436;BME280;48480;50.252;18.848;2023-07-08T07:37:05;99285.52;;;33.69;25.79
62436;BME280;48480;50.252;18.848;2023-07-08T07:39:50;99278.36;;;33.72;25.37
62436;BME280;48480;50.252;18.848;2023-07-08T07:42:37;99286.50;;;33.86;25.07
62436;BME280;48480;50.252;18.848;2023-07-08T07:45:22;99283.70;;;33.95;24.92
62436;BME280;48480;50.252;18.848;2023-07-08T07:48:07;99293.52;;;34.06;24.82
62436;BME280;48480;50.252;18.848;2023-07-08T07:50:51;99288.55;;;33.99;24.95
62436;BME280;48480;50.252;18.848;2023-07-08T07:53:37;99290.96;;;33.94;24.77
62436;BME280;48480;50.252;18.848;2023-07-08T07:56:21;99290.77;;;34.02;24.92
62436;BME280;48480;50.252;18.848;2023-07-08T07:59:05;99292.91;;;34.00;23.88
62436;BME280;48480;50.252;18.848;2023-07-08T08:01:50;99294.70;;;34.01;23.95
62436;BME280;48480;50.252;18.848;2023-07-08T08:04:34;99294.60;;;34.08;24.19
62436;BME280;48480;50.252;18.848;2023-07-08T08:07:20;99295.66;;;34.13;23.62
62436;BME280;48480;50.252;18.848;2023-07-08T08:10:05;99294.52;;;34.07;23.37
62436;BME280;48480;50.252;18.848;2023-07-08T08:12:50;99293.21;;;34.04;23.48
62436;BME280;48480;50.252;18.848;2023-07-08T08:15:34;99293.19;;;34.11;22.59
62436;BME280;48480;50.252;18.848;2023-07-08T08:18:19;99292.05;;;34.21;22.71
62436;BME280;48480;50.252;18.848;2023-07-08T08:21:03;99291.17;;;34.29;22.23
62436;BME280;48480;50.252;18.848;2023-07-08T08:23:47;99295.88;;;34.33;22.05
62436;BME280;48480;50.252;18.848;2023-07-08T08:26:32;99294.72;;;34.26;21.78
62436;BME280;48480;50.252;18.848;2023-07-08T08:29:16;99294.44;;;34.07;21.75
62436;BME280;48480;50.252;18.848;2023-07-08T08:32:00;99294.51;;;34.02;21.09
62436;BME280;48480;50.252;18.848;2023-07-08T08:34:44;99289.83;;;33.95;20.41
62436;BME280;48480;50.252;18.848;2023-07-08T08:37:32;99289.94;;;33.92;20.25
62436;BME280;48480;50.252;18.848;2023-07-08T08:40:17;99289.23;;;33.76;20.09
62436;BME280;48480;50.252;18.848;2023-07-08T08:43:21;99290.10;;;33.56;20.15
62436;BME280;48480;50.252;18.848;2023-07-08T08:52:05;99279.01;;;33.24;20.63
62436;BME280;48480;50.252;18.848;2023-07-08T08:54:51;99279.91;;;33.23;20.74
62436;BME280;48480;50.252;18.848;2023-07-08T08:58:05;99281.25;;;33.30;20.20
62436;BME280;48480;50.252;18.848;2023-07-08T09:00:55;99280.73;;;33.24;20.00
62436;BME280;48480;50.252;18.848;2023-07-08T09:03:53;99278.23;;;33.30;19.88
62436;BME280;48480;50.252;18.848;2023-07-08T09:06:40;99278.13;;;33.42;20.19
62436;BME280;48480;50.252;18.848;2023-07-08T09:09:40;99275.02;;;33.36;19.91
62436;BME280;48480;50.252;18.848;2023-07-08T09:12:27;99274.48;;;33.19;20.45
62436;BME280;48480;50.252;18.848;2023-07-08T09:15:15;99271.77;;;33.25;20.62
62436;BME280;48480;50.252;18.848;2023-07-08T09:18:41;99274.74;;;33.34;20.38
62436;BME280;48480;50.252;18.848;2023-07-08T09:21:41;99269.91;;;33.41;20.11
62436;BME280;48480;50.252;18.848;2023-07-08T09:27:25;99266.95;;;33.46;20.07
62436;BME280;48480;50.252;18.848;2023-07-08T09:30:14;99277.48;;;33.45;19.67
62436;BME280;48480;50.252;18.848;2023-07-08T09:33:04;99274.44;;;33.32;19.60
62436;BME280;48480;50.252;18.848;2023-07-08T09:35:51;99270.52;;;33.20;19.97
62436;BME280;48480;50.252;18.848;2023-07-08T09:38:35;99267.75;;;33.19;19.94
62436;BME280;48480;50.252;18.848;2023-07-08T09:41:34;99270.34;;;33.18;20.21
62436;BME280;48480;50.252;18.848;2023-07-08T09:44:27;99269.48;;;33.22;20.17
62436;BME280;48480;50.252;18.848;2023-07-08T09:47:26;99264.50;;;33.21;20.11
62436;BME280;48480;50.252;18.848;2023-07-08T09:53:04;99260.23;;;33.27;20.17
62436;BME280;48480;50.252;18.848;2023-07-08T09:55:50;99258.79;;;33.37;20.16
62436;BME280;48480;50.252;18.848;2023-07-08T09:58:39;99255.30;;;33.46;20.16
62436;BME280;48480;50.252;18.848;2023-07-08T10:01:26;99252.91;;;33.66;19.68
62436;BME280;48480;50.252;18.848;2023-07-08T10:04:12;99251.13;;;33.71;19.34
62436;BME280;48480;50.252;18.848;2023-07-08T10:06:56;99250.80;;;33.76;19.35
62436;BME280;48480;50.252;18.848;2023-07-08T10:12:25;99246.80;;;33.81;19.66
62436;BME280;48480;50.252;18.848;2023-07-08T10:15:20;99247.42;;;33.81;19.82
62436;BME280;48480;50.252;18.848;2023-07-08T10:18:13;99249.13;;;33.82;19.25
62436;BME280;48480;50.252;18.848;2023-07-08T10:27:34;99236.79;;;33.70;19.47
62436;BME280;48480;50.252;18.848;2023-07-08T10:36:40;99226.58;;;33.69;18.79
62436;BME280;48480;50.252;18.848;2023-07-08T10:55:17;99227.16;;;33.77;18.86
62436;BME280;48480;50.252;18.848;2023-07-08T10:58:39;99225.66;;;33.70;19.14
62436;BME280;48480;50.252;18.848;2023-07-08T11:01:44;99220.17;;;33.85;19.29
62436;BME280;48480;50.252;18.848;2023-07-08T11:07:43;99222.03;;;33.67;18.57
62436;BME280;48480;50.252;18.848;2023-07-08T11:10:34;99213.11;;;33.54;18.63
62436;BME280;48480;50.252;18.848;2023-07-08T11:13:23;99211.81;;;33.59;18.50
62436;BME280;48480;50.252;18.848;2023-07-08T11:16:31;99206.65;;;33.57;18.92
62436;BME280;48480;50.252;18.848;2023-07-08T11:19:32;99203.71;;;33.48;18.98
62436;BME280;48480;50.252;18.848;2023-07-08T11:22:21;99202.90;;;33.42;18.96
62436;BME280;48480;50.252;18.848;2023-07-08T11:25:19;99201.63;;;33.31;18.98
62436;BME280;48480;50.252;18.848;2023-07-08T11:28:06;99204.16;;;33.14;19.62
62436;BME280;48480;50.252;18.848;2023-07-08T11:30:58;99204.02;;;32.98;19.48
62436;BME280;48480;50.252;18.848;2023-07-08T11:33:45;99203.86;;;32.78;19.37
62436;BME280;48480;50.252;18.848;2023-07-08T11:36:32;99197.56;;;32.59;19.18
62436;BME280;48480;50.252;18.848;2023-07-08T11:39:42;99178.47;;;32.31;19.38
62436;BME280;48480;50.252;18.848;2023-07-08T11:42:42;99192.84;;;32.29;19.44
62436;BME280;48480;50.252;18.848;2023-07-08T11:45:34;99160.42;;;32.03;19.67
62436;BME280;48480;50.252;18.848;2023-07-08T11:48:36;99190.48;;;32.23;20.18
62436;BME280;48480;50.252;18.848;2023-07-08T11:51:26;99190.19;;;32.19;20.26
62436;BME280;48480;50.252;18.848;2023-07-08T11:54:17;99184.74;;;32.21;20.70
62436;BME280;48480;50.252;18.848;2023-07-08T11:57:06;99182.71;;;32.18;20.77
62436;BME280;48480;50.252;18.848;2023-07-08T12:00:22;99182.59;;;32.14;20.49
62436;BME280;48480;50.252;18.848;2023-07-08T12:03:23;99185.64;;;32.03;21.05
62436;BME280;48480;50.252;18.848;2023-07-08T12:09:29;99174.25;;;32.05;20.52
62436;BME280;48480;50.252;18.848;2023-07-08T12:12:31;99176.95;;;31.91;20.90
62436;BME280;48480;50.252;18.848;2023-07-08T12:15:26;99173.85;;;31.86;20.62
62436;BME280;48480;50.252;18.848;2023-07-08T12:18:20;99170.33;;;31.81;20.63
62436;BME280;48480;50.252;18.848;2023-07-08T12:21:07;99167.77;;;31.83;20.05
62436;BME280;48480;50.252;18.848;2023-07-08T12:24:02;99169.20;;;31.79;20.08
62436;BME280;48480;50.252;18.848;2023-07-08T12:26:49;99162.52;;;31.75;20.29
62436;BME280;48480;50.252;18.848;2023-07-08T12:29:33;99159.55;;;31.76;20.59
62436;BME280;48480;50.252;18.848;2023-07-08T12:32:18;99155.82;;;31.79;20.25
62436;BME280;48480;50.252;18.848;2023-07-08T12:35:19;99155.10;;;31.75;20.18
62436;BME280;48480;50.252;18.848;2023-07-08T12:41:00;99146.79;;;31.44;20.45
62436;BME280;48480;50.252;18.848;2023-07-08T12:43:46;99144.13;;;31.34;20.81
62436;BME280;48480;50.252;18.848;2023-07-08T12:46:31;99144.17;;;31.28;21.36
62436;BME280;48480;50.252;18.848;2023-07-08T12:49:16;99145.35;;;31.28;21.37
62436;BME280;48480;50.252;18.848;2023-07-08T12:52:05;99143.04;;;31.22;21.58
62436;BME280;48480;50.252;18.848;2023-07-08T12:54:50;99141.14;;;31.22;21.63
62436;BME280;48480;50.252;18.848;2023-07-08T12:57:40;99135.21;;;31.13;21.30
62436;BME280;48480;50.252;18.848;2023-07-08T13:00:32;99136.98;;;30.95;21.26
62436;BME280;48480;50.252;18.848;2023-07-08T13:03:24;99133.77;;;30.72;21.29
62436;BME280;48480;50.252;18.848;2023-07-08T13:06:15;99132.86;;;30.65;21.34
62436;BME280;48480;50.252;18.848;2023-07-08T13:09:05;99107.20;;;30.52;21.81
62436;BME280;48480;50.252;18.848;2023-07-08T13:11:54;99125.77;;;30.55;22.03
62436;BME280;48480;50.252;18.848;2023-07-08T13:14:40;99127.20;;;30.51;22.48
62436;BME280;48480;50.252;18.848;2023-07-08T13:17:30;99127.27;;;30.58;22.55
62436;BME280;48480;50.252;18.848;2023-07-08T13:20:18;99123.79;;;30.64;22.54
62436;BME280;48480;50.252;18.848;2023-07-08T13:23:03;99127.59;;;30.69;22.37
62436;BME280;48480;50.252;18.848;2023-07-08T13:25:50;99129.35;;;30.66;22.26
62436;BME280;48480;50.252;18.848;2023-07-08T13:28:38;99119.88;;;30.71;21.76
62436;BME280;48480;50.252;18.848;2023-07-08T13:31:32;99120.77;;;30.79;21.71
62436;BME280;48480;50.252;18.848;2023-07-08T13:34:23;99119.55;;;30.86;21.38
62436;BME280;48480;50.252;18.848;2023-07-08T13:37:12;99119.88;;;30.80;21.36
62436;BME280;48480;50.252;18.848;2023-07-08T13:40:05;99120.77;;;30.73;20.85
62436;BME280;48480;50.252;18.848;2023-07-08T13:42:52;99119.61;;;30.72;20.69
62436;BME280;48480;50.252;18.848;2023-07-08T13:45:37;99110.46;;;30.71;21.24
62436;BME280;48480;50.252;18.848;2023-07-08T13:48:37;99117.98;;;30.81;21.22
62436;BME280;48480;50.252;18.848;2023-07-08T13:51:23;99115.12;;;30.81;20.80
62436;BME280;48480;50.252;18.848;2023-07-08T13:54:21;99121.11;;;30.78;20.56
62436;BME280;48480;50.252;18.848;2023-07-08T13:57:17;99117.73;;;30.72;20.18
62436;BME280;48480;50.252;18.848;2023-07-08T14:00:05;99116.37;;;30.63;20.45
62436;BME280;48480;50.252;18.848;2023-07-08T14:02:51;99115.77;;;30.62;20.63
62436;BME280;48480;50.252;18.848;2023-07-08T14:05:38;99113.95;;;30.55;20.47
62436;BME280;48480;50.252;18.848;2023-07-08T14:08:24;99111.11;;;30.50;20.93
62436;BME280;48480;50.252;18.848;2023-07-08T14:11:09;99106.42;;;30.50;21.63
62436;BME280;48480;50.252;18.848;2023-07-08T14:13:53;99110.56;;;30.53;21.36
62436;BME280;48480;50.252;18.848;2023-07-08T14:16:41;99105.73;;;30.55;21.32
62436;BME280;48480;50.252;18.848;2023-07-08T14:19:30;99101.05;;;30.65;22.17
62436;BME280;48480;50.252;18.848;2023-07-08T14:22:25;99105.35;;;30.73;21.67
62436;BME280;48480;50.252;18.848;2023-07-08T14:25:10;99102.70;;;30.77;21.42
62436;BME280;48480;50.252;18.848;2023-07-08T14:27:55;99102.32;;;30.80;21.94
62436;BME280;48480;50.252;18.848;2023-07-08T14:30:46;99100.34;;;30.80;21.50
62436;BME280;48480;50.252;18.848;2023-07-08T14:33:31;99098.95;;;30.79;21.02
62436;BME280;48480;50.252;18.848;2023-07-08T14:36:15;99092.96;;;30.75;21.17
62436;BME280;48480;50.252;18.848;2023-07-08T14:38:59;99088.47;;;30.71;21.29
62436;BME280;48480;50.252;18.848;2023-07-08T14:41:49;99082.82;;;30.72;21.53
62436;BME280;48480;50.252;18.848;2023-07-08T14:44:35;99080.80;;;30.74;21.80
62436;BME280;48480;50.252;18.848;2023-07-08T14:47:20;99084.73;;;30.78;21.60
62436;BME280;48480;50.252;18.848;2023-07-08T14:50:12;99083.39;;;30.75;21.05
62436;BME280;48480;50.252;18.848;2023-07-08T14:52:57;99075.98;;;30.74;21.13
62436;BME280;48480;50.252;18.848;2023-07-08T14:55:43;99077.96;;;30.68;20.99
62436;BME280;48480;50.252;18.848;2023-07-08T14:58:30;99077.02;;;30.64;21.28
62436;BME280;48480;50.252;18.848;2023-07-08T15:01:19;99067.73;;;30.63;21.54
62436;BME280;48480;50.252;18.848;2023-07-08T15:04:10;99069.17;;;30.62;21.30
62436;BME280;48480;50.252;18.848;2023-07-08T15:06:58;99064.95;;;30.66;21.77
62436;BME280;48480;50.252;18.848;2023-07-08T15:09:43;99064.77;;;30.70;22.09
62436;BME280;48480;50.252;18.848;2023-07-08T15:12:28;99065.21;;;30.69;21.72
62436;BME280;48480;50.252;18.848;2023-07-08T15:18:14;99060.46;;;30.66;21.59
62436;BME280;48480;50.252;18.848;2023-07-08T15:20:58;99059.30;;;30.65;21.38
62436;BME280;48480;50.252;18.848;2023-07-08T15:23:42;99057.43;;;30.63;21.17
62436;BME280;48480;50.252;18.848;2023-07-08T15:26:27;99052.64;;;30.63;21.57
62436;BME280;48480;50.252;18.848;2023-07-08T15:29:18;99049.27;;;30.62;21.77
62436;BME280;48480;50.252;18.848;2023-07-08T15:32:03;99053.12;;;30.65;22.19